sensor_id;sensor_type;location;lat;lon;timestamp;P1;durP1;ratioP1;P2;durP2;ratioP2
50350;SDS011;36250;48.740;22.174;2023-03-23T00:01:02;31.13;;;23.13;;
50350;SDS011;36250;48.740;22.174;2023-03-23T00:03:29;30.52;;;20.85;;
50350;SDS011;36250;48.740;22.174;2023-03-23T00:05:56;41.60;;;25.58;;
50350;SDS011;36250;48.740;22.174;2023-03-23T00:10:54;75.70;;;36.50;;
50350;SDS011;36250;48.740;22.174;2023-03-23T00:13:23;25.42;;;15.95;;
50350;SDS011;36250;48.740;22.174;2023-03-23T00:15:49;23.23;;;15.20;;
50350;SDS011;36250;48.740;22.174;2023-03-23T00:18:17;25.73;;;17.70;;
50350;SDS011;36250;48.740;22.174;2023-03-23T00:20:46;50.28;;;35.03;;
50350;SDS011;36250;48.740;22.174;2023-03-23T00:23:14;63.70;;;46.03;;
50350;SDS011;36250;48.740;22.174;2023-03-23T00:25:54;72.05;;;48.90;;
50350;SDS011;36250;48.740;22.174;2023-03-23T00:28:24;97.45;;;58.60;;
50350;SDS011;36250;48.740;22.174;2023-03-23T00:30:55;66.43;;;46.10;;
50350;SDS011;36250;48.740;22.174;2023-03-23T00:33:22;56.42;;;38.25;;
50350;SDS011;36250;48.740;22.174;2023-03-23T00:35:55;44.70;;;27.88;;
50350;SDS011;36250;48.740;22.174;2023-03-23T00:38:21;32.22;;;19.80;;
50350;SDS011;36250;48.740;22.174;2023-03-23T00:40:48;25.17;;;16.73;;
50350;SDS011;36250;48.740;22.174;2023-03-23T00:43:14;34.90;;;19.45;;
50350;SDS011;36250;48.740;22.174;2023-03-23T00:45:41;69.40;;;38.60;;
50350;SDS011;36250;48.740;22.174;2023-03-23T00:48:07;103.45;;;66.07;;
50350;SDS011;36250;48.740;22.174;2023-03-23T00:50:32;112.45;;;73.90;;
50350;SDS011;36250;48.740;22.174;2023-03-23T00:52:58;111.93;;;70.28;;
50350;SDS011;36250;48.740;22.174;2023-03-23T00:55:24;97.40;;;65.05;;
50350;SDS011;36250;48.740;22.174;2023-03-23T00:57:50;51.63;;;34.08;;
50350;SDS011;36250;48.740;22.174;2023-03-23T01:00:16;26.05;;;19.10;;
50350;SDS011;36250;48.740;22.174;2023-03-23T01:02:43;31.70;;;17.85;;
50350;SDS011;36250;48.740;22.174;2023-03-23T01:05:09;28.90;;;15.27;;
50350;SDS011;36250;48.740;22.174;2023-03-23T01:07:36;34.78;;;21.60;;
50350;SDS011;36250;48.740;22.174;2023-03-23T01:10:01;32.65;;;20.33;;
50350;SDS011;36250;48.740;22.174;2023-03-23T01:12:27;32.70;;;22.45;;
50350;SDS011;36250;48.740;22.174;2023-03-23T01:14:53;36.35;;;21.25;;
50350;SDS011;36250;48.740;22.174;2023-03-23T01:17:18;31.13;;;18.25;;
50350;SDS011;36250;48.740;22.174;2023-03-23T01:19:44;22.50;;;14.23;;
50350;SDS011;36250;48.740;22.174;2023-03-23T01:22:10;17.05;;;9.75;;
50350;SDS011;36250;48.740;22.174;2023-03-23T01:24:35;12.63;;;7.75;;
50350;SDS011;36250;48.740;22.174;2023-03-23T01:27:00;10.27;;;6.22;;
50350;SDS011;36250;48.740;22.174;2023-03-23T01:29:31;8.60;;;6.32;;
50350;SDS011;36250;48.740;22.174;2023-03-23T01:32:00;7.07;;;5.63;;
50350;SDS011;36250;48.740;22.174;2023-03-23T01:34:25;10.35;;;6.75;;
50350;SDS011;36250;48.740;22.174;2023-03-23T01:36:50;6.20;;;5.47;;
50350;SDS011;36250;48.740;22.174;2023-03-23T01:39:16;9.02;;;6.32;;
50350;SDS011;36250;48.740;22.174;2023-03-23T01:41:41;8.10;;;6.70;;
50350;SDS011;36250;48.740;22.174;2023-03-23T01:44:08;11.40;;;8.88;;
50350;SDS011;36250;48.740;22.174;2023-03-23T01:46:54;15.02;;;9.45;;
50350;SDS011;36250;48.740;22.174;2023-03-23T01:49:27;18.23;;;11.00;;
50350;SDS011;36250;48.740;22.174;2023-03-23T01:51:56;15.27;;;10.60;;
50350;SDS011;36250;48.740;22.174;2023-03-23T01:54:26;18.25;;;10.52;;
50350;SDS011;36250;48.740;22.174;2023-03-23T01:57:01;15.40;;;10.30;;
50350;SDS011;36250;48.740;22.174;2023-03-23T01:59:29;20.08;;;10.10;;
50350;SDS011;36250;48.740;22.174;2023-03-23T02:01:56;22.38;;;13.60;;
50350;SDS011;36250;48.740;22.174;2023-03-23T02:04:22;28.38;;;14.15;;
50350;SDS011;36250;48.740;22.174;2023-03-23T02:06:49;25.05;;;14.70;;
50350;SDS011;36250;48.740;22.174;2023-03-23T02:09:16;32.20;;;16.92;;
50350;SDS011;36250;48.740;22.174;2023-03-23T02:11:42;25.83;;;15.23;;
50350;SDS011;36250;48.740;22.174;2023-03-23T02:14:09;28.10;;;14.57;;
50350;SDS011;36250;48.740;22.174;2023-03-23T02:16:45;26.13;;;14.90;;
50350;SDS011;36250;48.740;22.174;2023-03-23T02:41:29;20.15;;;12.13;;
50350;SDS011;36250;48.740;22.174;2023-03-23T02:43:57;18.80;;;11.38;;
50350;SDS011;36250;48.740;22.174;2023-03-23T02:46:23;18.65;;;12.57;;
50350;SDS011;36250;48.740;22.174;2023-03-23T02:48:50;20.35;;;12.38;;
50350;SDS011;36250;48.740;22.174;2023-03-23T02:51:19;19.55;;;11.13;;
50350;SDS011;36250;48.740;22.174;2023-03-23T02:53:46;17.33;;;11.05;;
50350;SDS011;36250;48.740;22.174;2023-03-23T02:56:15;17.80;;;9.77;;
50350;SDS011;36250;48.740;22.174;2023-03-23T02:58:41;17.38;;;11.13;;
50350;SDS011;36250;48.740;22.174;2023-03-23T03:04:00;14.82;;;9.50;;
50350;SDS011;36250;48.740;22.174;2023-03-23T03:09:26;16.65;;;10.10;;
50350;SDS011;36250;48.740;22.174;2023-03-23T03:12:08;17.90;;;11.82;;
50350;SDS011;36250;48.740;22.174;2023-03-23T03:14:42;20.73;;;11.93;;
50350;SDS011;36250;48.740;22.174;2023-03-23T03:17:24;26.67;;;13.48;;
50350;SDS011;36250;48.740;22.174;2023-03-23T03:19:55;22.27;;;13.88;;
50350;SDS011;36250;48.740;22.174;2023-03-23T03:22:22;21.65;;;12.07;;
50350;SDS011;36250;48.740;22.174;2023-03-23T03:24:53;15.95;;;10.25;;
50350;SDS011;36250;48.740;22.174;2023-03-23T03:27:21;16.35;;;9.73;;
50350;SDS011;36250;48.740;22.174;2023-03-23T03:29:49;21.90;;;11.90;;
50350;SDS011;36250;48.740;22.174;2023-03-23T03:32:20;18.58;;;10.32;;
50350;SDS011;36250;48.740;22.174;2023-03-23T03:34:49;14.18;;;9.70;;
50350;SDS011;36250;48.740;22.174;2023-03-23T03:37:15;15.18;;;10.18;;
50350;SDS011;36250;48.740;22.174;2023-03-23T03:39:42;16.05;;;9.07;;
50350;SDS011;36250;48.740;22.174;2023-03-23T03:42:08;9.77;;;7.57;;
50350;SDS011;36250;48.740;22.174;2023-03-23T03:44:33;7.97;;;6.50;;
50350;SDS011;36250;48.740;22.174;2023-03-23T03:46:59;9.85;;;6.10;;
50350;SDS011;36250;48.740;22.174;2023-03-23T03:49:25;11.65;;;6.50;;
50350;SDS011;36250;48.740;22.174;2023-03-23T03:51:51;10.23;;;6.70;;
50350;SDS011;36250;48.740;22.174;2023-03-23T03:54:16;7.32;;;5.90;;
50350;SDS011;36250;48.740;22.174;2023-03-23T03:56:42;8.07;;;6.07;;
50350;SDS011;36250;48.740;22.174;2023-03-23T03:59:08;8.98;;;6.70;;
50350;SDS011;36250;48.740;22.174;2023-03-23T04:01:34;10.88;;;6.53;;
50350;SDS011;36250;48.740;22.174;2023-03-23T04:04:03;8.60;;;6.60;;
50350;SDS011;36250;48.740;22.174;2023-03-23T04:06:29;7.93;;;5.63;;
50350;SDS011;36250;48.740;22.174;2023-03-23T04:08:55;7.97;;;5.22;;
50350;SDS011;36250;48.740;22.174;2023-03-23T04:11:23;11.43;;;7.00;;
50350;SDS011;36250;48.740;22.174;2023-03-23T04:13:50;8.77;;;7.05;;
50350;SDS011;36250;48.740;22.174;2023-03-23T04:16:15;7.72;;;6.50;;
50350;SDS011;36250;48.740;22.174;2023-03-23T04:18:41;9.10;;;7.05;;
50350;SDS011;36250;48.740;22.174;2023-03-23T04:21:07;10.23;;;8.23;;
50350;SDS011;36250;48.740;22.174;2023-03-23T04:23:34;9.70;;;7.55;;
50350;SDS011;36250;48.740;22.174;2023-03-23T04:26:00;11.55;;;8.20;;
50350;SDS011;36250;48.740;22.174;2023-03-23T04:28:28;13.40;;;8.32;;
50350;SDS011;36250;48.740;22.174;2023-03-23T04:30:54;12.50;;;8.23;;
50350;SDS011;36250;48.740;22.174;2023-03-23T04:33:20;13.43;;;7.72;;
50350;SDS011;36250;48.740;22.174;2023-03-23T04:35:47;13.32;;;9.52;;
50350;SDS011;36250;48.740;22.174;2023-03-23T04:38:14;13.63;;;9.45;;
50350;SDS011;36250;48.740;22.174;2023-03-23T04:40:41;10.90;;;7.97;;
50350;SDS011;36250;48.740;22.174;2023-03-23T04:43:08;12.27;;;8.15;;
50350;SDS011;36250;48.740;22.174;2023-03-23T04:45:34;9.30;;;7.25;;
50350;SDS011;36250;48.740;22.174;2023-03-23T04:48:02;10.13;;;7.60;;
50350;SDS011;36250;48.740;22.174;2023-03-23T04:50:30;9.88;;;6.97;;
50350;SDS011;36250;48.740;22.174;2023-03-23T04:52:57;12.93;;;8.23;;
50350;SDS011;36250;48.740;22.174;2023-03-23T04:55:24;15.13;;;7.60;;
50350;SDS011;36250;48.740;22.174;2023-03-23T04:57:50;9.18;;;7.20;;
50350;SDS011;36250;48.740;22.174;2023-03-23T05:00:17;9.82;;;7.55;;
50350;SDS011;36250;48.740;22.174;2023-03-23T05:02:43;9.63;;;7.97;;
50350;SDS011;36250;48.740;22.174;2023-03-23T05:05:11;11.02;;;7.60;;
50350;SDS011;36250;48.740;22.174;2023-03-23T05:07:38;10.82;;;8.13;;
50350;SDS011;36250;48.740;22.174;2023-03-23T05:10:05;11.82;;;7.43;;
50350;SDS011;36250;48.740;22.174;2023-03-23T05:12:31;8.77;;;7.22;;
50350;SDS011;36250;48.740;22.174;2023-03-23T05:14:56;9.50;;;7.38;;
50350;SDS011;36250;48.740;22.174;2023-03-23T05:17:22;11.63;;;8.00;;
50350;SDS011;36250;48.740;22.174;2023-03-23T05:19:49;10.25;;;7.28;;
50350;SDS011;36250;48.740;22.174;2023-03-23T05:22:18;10.52;;;7.80;;
50350;SDS011;36250;48.740;22.174;2023-03-23T05:24:46;9.65;;;7.68;;
50350;SDS011;36250;48.740;22.174;2023-03-23T05:27:16;14.60;;;8.20;;
50350;SDS011;36250;48.740;22.174;2023-03-23T05:29:43;11.35;;;7.75;;
50350;SDS011;36250;48.740;22.174;2023-03-23T05:32:11;10.68;;;8.15;;
50350;SDS011;36250;48.740;22.174;2023-03-23T05:34:36;12.52;;;7.72;;
50350;SDS011;36250;48.740;22.174;2023-03-23T05:37:02;8.70;;;7.18;;
50350;SDS011;36250;48.740;22.174;2023-03-23T05:39:28;12.52;;;8.57;;
50350;SDS011;36250;48.740;22.174;2023-03-23T05:41:56;11.27;;;9.43;;
50350;SDS011;36250;48.740;22.174;2023-03-23T05:44:21;10.32;;;7.88;;
50350;SDS011;36250;48.740;22.174;2023-03-23T05:46:47;9.57;;;7.40;;
50350;SDS011;36250;48.740;22.174;2023-03-23T05:49:13;10.07;;;7.68;;
50350;SDS011;36250;48.740;22.174;2023-03-23T05:51:43;10.23;;;6.70;;
50350;SDS011;36250;48.740;22.174;2023-03-23T05:54:10;9.50;;;7.13;;
50350;SDS011;36250;48.740;22.174;2023-03-23T05:56:36;14.57;;;7.40;;
50350;SDS011;36250;48.740;22.174;2023-03-23T05:59:02;9.18;;;7.13;;
50350;SDS011;36250;48.740;22.174;2023-03-23T06:01:28;7.85;;;7.03;;
50350;SDS011;36250;48.740;22.174;2023-03-23T06:03:53;13.27;;;6.95;;
50350;SDS011;36250;48.740;22.174;2023-03-23T06:06:26;10.23;;;7.43;;
50350;SDS011;36250;48.740;22.174;2023-03-23T06:08:52;7.93;;;6.40;;
50350;SDS011;36250;48.740;22.174;2023-03-23T06:11:17;13.40;;;7.60;;
50350;SDS011;36250;48.740;22.174;2023-03-23T06:13:44;9.77;;;7.57;;
50350;SDS011;36250;48.740;22.174;2023-03-23T06:16:09;10.82;;;7.53;;
50350;SDS011;36250;48.740;22.174;2023-03-23T06:18:34;11.40;;;7.75;;
50350;SDS011;36250;48.740;22.174;2023-03-23T06:21:02;16.63;;;11.75;;
50350;SDS011;36250;48.740;22.174;2023-03-23T06:23:28;21.33;;;15.15;;
50350;SDS011;36250;48.740;22.174;2023-03-23T06:25:54;21.25;;;13.30;;
50350;SDS011;36250;48.740;22.174;2023-03-23T06:28:24;20.27;;;13.00;;
50350;SDS011;36250;48.740;22.174;2023-03-23T06:30:50;17.23;;;11.20;;
50350;SDS011;36250;48.740;22.174;2023-03-23T06:33:15;11.90;;;8.80;;
50350;SDS011;36250;48.740;22.174;2023-03-23T06:35:42;13.02;;;8.70;;
50350;SDS011;36250;48.740;22.174;2023-03-23T06:38:08;11.85;;;8.60;;
50350;SDS011;36250;48.740;22.174;2023-03-23T06:40:33;11.80;;;8.75;;
50350;SDS011;36250;48.740;22.174;2023-03-23T06:43:00;11.55;;;8.68;;
50350;SDS011;36250;48.740;22.174;2023-03-23T06:45:26;10.50;;;8.43;;
50350;SDS011;36250;48.740;22.174;2023-03-23T06:47:51;15.20;;;9.35;;
50350;SDS011;36250;48.740;22.174;2023-03-23T06:50:17;17.65;;;10.75;;
50350;SDS011;36250;48.740;22.174;2023-03-23T06:52:46;14.65;;;11.02;;
50350;SDS011;36250;48.740;22.174;2023-03-23T06:55:12;16.00;;;9.75;;
50350;SDS011;36250;48.740;22.174;2023-03-23T06:57:38;78.63;;;43.50;;
50350;SDS011;36250;48.740;22.174;2023-03-23T07:00:04;31.92;;;18.30;;
50350;SDS011;36250;48.740;22.174;2023-03-23T07:02:32;16.95;;;12.75;;
50350;SDS011;36250;48.740;22.174;2023-03-23T07:04:58;14.88;;;10.70;;
50350;SDS011;36250;48.740;22.174;2023-03-23T07:07:23;13.88;;;10.32;;
50350;SDS011;36250;48.740;22.174;2023-03-23T07:09:48;15.23;;;9.93;;
50350;SDS011;36250;48.740;22.174;2023-03-23T07:12:14;16.73;;;9.70;;
50350;SDS011;36250;48.740;22.174;2023-03-23T07:14:39;16.45;;;10.85;;
50350;SDS011;36250;48.740;22.174;2023-03-23T07:17:04;15.32;;;10.48;;
50350;SDS011;36250;48.740;22.174;2023-03-23T07:19:30;12.45;;;9.90;;
50350;SDS011;36250;48.740;22.174;2023-03-23T07:21:56;13.30;;;9.40;;
50350;SDS011;36250;48.740;22.174;2023-03-23T07:24:22;13.23;;;9.90;;
50350;SDS011;36250;48.740;22.174;2023-03-23T07:26:47;16.02;;;10.50;;
50350;SDS011;36250;48.740;22.174;2023-03-23T07:29:13;13.85;;;10.13;;
50350;SDS011;36250;48.740;22.174;2023-03-23T07:31:38;13.40;;;10.20;;
50350;SDS011;36250;48.740;22.174;2023-03-23T07:34:04;15.55;;;10.85;;
50350;SDS011;36250;48.740;22.174;2023-03-23T07:36:29;14.80;;;10.35;;
50350;SDS011;36250;48.740;22.174;2023-03-23T07:38:55;18.95;;;11.73;;
50350;SDS011;36250;48.740;22.174;2023-03-23T07:41:21;16.00;;;12.27;;
50350;SDS011;36250;48.740;22.174;2023-03-23T07:43:47;13.85;;;9.15;;
50350;SDS011;36250;48.740;22.174;2023-03-23T07:46:12;13.35;;;8.15;;
50350;SDS011;36250;48.740;22.174;2023-03-23T07:48:38;12.90;;;7.85;;
50350;SDS011;36250;48.740;22.174;2023-03-23T07:51:04;9.68;;;7.85;;
50350;SDS011;36250;48.740;22.174;2023-03-23T07:53:30;9.65;;;8.10;;
50350;SDS011;36250;48.740;22.174;2023-03-23T07:55:56;9.93;;;8.07;;
50350;SDS011;36250;48.740;22.174;2023-03-23T07:58:21;12.82;;;7.90;;
50350;SDS011;36250;48.740;22.174;2023-03-23T08:00:46;9.07;;;7.47;;
50350;SDS011;36250;48.740;22.174;2023-03-23T08:03:14;11.35;;;7.68;;
50350;SDS011;36250;48.740;22.174;2023-03-23T08:05:40;11.15;;;7.78;;
50350;SDS011;36250;48.740;22.174;2023-03-23T08:08:07;11.73;;;9.20;;
50350;SDS011;36250;48.740;22.174;2023-03-23T08:10:34;13.55;;;8.82;;
50350;SDS011;36250;48.740;22.174;2023-03-23T08:13:00;12.48;;;8.82;;
50350;SDS011;36250;48.740;22.174;2023-03-23T08:15:27;14.63;;;9.27;;
50350;SDS011;36250;48.740;22.174;2023-03-23T08:17:54;12.13;;;8.73;;
50350;SDS011;36250;48.740;22.174;2023-03-23T08:20:20;15.52;;;9.20;;
50350;SDS011;36250;48.740;22.174;2023-03-23T08:22:54;18.77;;;8.68;;
50350;SDS011;36250;48.740;22.174;2023-03-23T08:25:21;11.23;;;8.23;;
50350;SDS011;36250;48.740;22.174;2023-03-23T08:27:49;11.15;;;9.18;;
50350;SDS011;36250;48.740;22.174;2023-03-23T08:30:15;10.30;;;7.57;;
50350;SDS011;36250;48.740;22.174;2023-03-23T08:32:44;17.60;;;8.15;;
50350;SDS011;36250;48.740;22.174;2023-03-23T08:35:10;12.80;;;7.55;;
50350;SDS011;36250;48.740;22.174;2023-03-23T08:37:37;13.30;;;8.77;;
50350;SDS011;36250;48.740;22.174;2023-03-23T08:40:03;10.68;;;7.32;;
50350;SDS011;36250;48.740;22.174;2023-03-23T08:42:34;10.20;;;7.35;;
50350;SDS011;36250;48.740;22.174;2023-03-23T08:45:00;9.02;;;7.63;;
50350;SDS011;36250;48.740;22.174;2023-03-23T08:47:26;12.80;;;7.40;;
50350;SDS011;36250;48.740;22.174;2023-03-23T08:49:51;11.05;;;7.55;;
50350;SDS011;36250;48.740;22.174;2023-03-23T08:52:18;9.80;;;8.10;;
50350;SDS011;36250;48.740;22.174;2023-03-23T08:54:45;8.40;;;7.50;;
50350;SDS011;36250;48.740;22.174;2023-03-23T08:57:12;12.70;;;7.65;;
50350;SDS011;36250;48.740;22.174;2023-03-23T08:59:39;12.80;;;6.82;;
50350;SDS011;36250;48.740;22.174;2023-03-23T09:02:05;9.38;;;7.57;;
50350;SDS011;36250;48.740;22.174;2023-03-23T09:04:31;8.95;;;7.38;;
50350;SDS011;36250;48.740;22.174;2023-03-23T09:06:57;8.43;;;7.05;;
50350;SDS011;36250;48.740;22.174;2023-03-23T09:09:22;9.30;;;7.30;;
50350;SDS011;36250;48.740;22.174;2023-03-23T09:11:48;12.23;;;7.47;;
50350;SDS011;36250;48.740;22.174;2023-03-23T09:14:13;10.23;;;7.28;;
50350;SDS011;36250;48.740;22.174;2023-03-23T09:16:38;9.40;;;6.65;;
50350;SDS011;36250;48.740;22.174;2023-03-23T09:19:05;7.45;;;6.65;;
50350;SDS011;36250;48.740;22.174;2023-03-23T09:21:33;11.48;;;6.55;;
50350;SDS011;36250;48.740;22.174;2023-03-23T09:23:59;8.35;;;6.32;;
50350;SDS011;36250;48.740;22.174;2023-03-23T09:26:26;8.60;;;6.75;;
50350;SDS011;36250;48.740;22.174;2023-03-23T09:28:52;12.65;;;6.68;;
50350;SDS011;36250;48.740;22.174;2023-03-23T09:31:18;11.02;;;7.22;;
50350;SDS011;36250;48.740;22.174;2023-03-23T09:33:45;16.20;;;8.00;;
50350;SDS011;36250;48.740;22.174;2023-03-23T09:36:11;8.23;;;7.07;;
50350;SDS011;36250;48.740;22.174;2023-03-23T09:38:39;12.20;;;7.75;;
50350;SDS011;36250;48.740;22.174;2023-03-23T09:44:17;9.35;;;7.95;;
50350;SDS011;36250;48.740;22.174;2023-03-23T09:47:10;9.23;;;7.13;;
50350;SDS011;36250;48.740;22.174;2023-03-23T09:49:48;8.77;;;6.40;;
50350;SDS011;36250;48.740;22.174;2023-03-23T09:52:19;12.23;;;8.00;;
50350;SDS011;36250;48.740;22.174;2023-03-23T09:54:49;14.02;;;7.85;;
50350;SDS011;36250;48.740;22.174;2023-03-23T09:59:52;10.23;;;6.60;;
50350;SDS011;36250;48.740;22.174;2023-03-23T10:02:26;11.75;;;6.63;;
50350;SDS011;36250;48.740;22.174;2023-03-23T10:04:56;9.43;;;7.53;;
50350;SDS011;36250;48.740;22.174;2023-03-23T10:07:32;10.00;;;7.38;;
50350;SDS011;36250;48.740;22.174;2023-03-23T10:09:59;8.93;;;7.45;;
50350;SDS011;36250;48.740;22.174;2023-03-23T10:12:38;16.15;;;7.68;;
50350;SDS011;36250;48.740;22.174;2023-03-23T10:15:14;12.18;;;7.45;;
50350;SDS011;36250;48.740;22.174;2023-03-23T10:17:47;14.65;;;8.20;;
50350;SDS011;36250;48.740;22.174;2023-03-23T10:25:45;14.43;;;8.50;;
50350;SDS011;36250;48.740;22.174;2023-03-23T10:28:17;10.25;;;7.90;;
50350;SDS011;36250;48.740;22.174;2023-03-23T10:30:51;11.07;;;7.55;;
50350;SDS011;36250;48.740;22.174;2023-03-23T10:33:22;11.75;;;8.55;;
50350;SDS011;36250;48.740;22.174;2023-03-23T10:36:15;12.73;;;8.00;;
50350;SDS011;36250;48.740;22.174;2023-03-23T10:41:34;12.27;;;7.00;;
50350;SDS011;36250;48.740;22.174;2023-03-23T10:43:59;10.90;;;7.57;;
50350;SDS011;36250;48.740;22.174;2023-03-23T10:49:02;8.10;;;7.25;;
50350;SDS011;36250;48.740;22.174;2023-03-23T10:54:02;11.07;;;7.25;;
50350;SDS011;36250;48.740;22.174;2023-03-23T10:56:39;14.15;;;7.45;;
50350;SDS011;36250;48.740;22.174;2023-03-23T10:59:20;11.15;;;8.18;;
50350;SDS011;36250;48.740;22.174;2023-03-23T11:01:52;10.55;;;8.30;;
50350;SDS011;36250;48.740;22.174;2023-03-23T11:04:19;9.35;;;8.30;;
50350;SDS011;36250;48.740;22.174;2023-03-23T11:06:49;9.80;;;8.00;;
50350;SDS011;36250;48.740;22.174;2023-03-23T11:09:21;10.25;;;7.80;;
50350;SDS011;36250;48.740;22.174;2023-03-23T11:11:57;11.82;;;7.88;;
50350;SDS011;36250;48.740;22.174;2023-03-23T11:16:57;11.30;;;8.30;;
50350;SDS011;36250;48.740;22.174;2023-03-23T11:24:34;12.88;;;9.32;;
50350;SDS011;36250;48.740;22.174;2023-03-23T11:27:26;13.20;;;9.30;;
50350;SDS011;36250;48.740;22.174;2023-03-23T11:32:33;18.58;;;10.00;;
50350;SDS011;36250;48.740;22.174;2023-03-23T11:35:01;16.33;;;9.32;;
50350;SDS011;36250;48.740;22.174;2023-03-23T11:37:32;19.70;;;9.68;;
50350;SDS011;36250;48.740;22.174;2023-03-23T11:42:42;12.13;;;8.52;;
50350;SDS011;36250;48.740;22.174;2023-03-23T11:45:31;14.73;;;8.30;;
50350;SDS011;36250;48.740;22.174;2023-03-23T11:50:50;11.55;;;8.90;;
50350;SDS011;36250;48.740;22.174;2023-03-23T11:56:36;10.70;;;8.32;;
50350;SDS011;36250;48.740;22.174;2023-03-23T11:59:05;14.13;;;8.45;;
50350;SDS011;36250;48.740;22.174;2023-03-23T12:12:15;16.40;;;9.90;;
50350;SDS011;36250;48.740;22.174;2023-03-23T12:23:15;12.20;;;8.15;;
50350;SDS011;36250;48.740;22.174;2023-03-23T12:33:55;9.55;;;7.80;;
50350;SDS011;36250;48.740;22.174;2023-03-23T12:36:49;10.85;;;7.72;;
50350;SDS011;36250;48.740;22.174;2023-03-23T12:42:29;13.80;;;7.40;;
50350;SDS011;36250;48.740;22.174;2023-03-23T12:48:13;10.80;;;6.53;;
50350;SDS011;36250;48.740;22.174;2023-03-23T12:53:28;10.15;;;6.28;;
50350;SDS011;36250;48.740;22.174;2023-03-23T12:59:06;5.00;;;3.50;;
50350;SDS011;36250;48.740;22.174;2023-03-23T13:01:37;4.65;;;3.45;;
50350;SDS011;36250;48.740;22.174;2023-03-23T13:04:11;3.00;;;2.70;;
50350;SDS011;36250;48.740;22.174;2023-03-23T13:06:39;6.15;;;3.70;;
50350;SDS011;36250;48.740;22.174;2023-03-23T13:16:51;11.23;;;3.30;;
50350;SDS011;36250;48.740;22.174;2023-03-23T13:19:51;6.13;;;4.75;;
50350;SDS011;36250;48.740;22.174;2023-03-23T13:22:26;6.05;;;3.25;;
50350;SDS011;36250;48.740;22.174;2023-03-23T13:25:02;2.90;;;2.63;;
50350;SDS011;36250;48.740;22.174;2023-03-23T13:27:36;3.35;;;2.88;;
50350;SDS011;36250;48.740;22.174;2023-03-23T13:30:02;5.85;;;2.72;;
50350;SDS011;36250;48.740;22.174;2023-03-23T13:32:38;6.00;;;3.70;;
50350;SDS011;36250;48.740;22.174;2023-03-23T13:35:13;3.20;;;2.72;;
50350;SDS011;36250;48.740;22.174;2023-03-23T13:37:44;8.85;;;2.63;;
50350;SDS011;36250;48.740;22.174;2023-03-23T13:40:30;4.60;;;2.85;;
50350;SDS011;36250;48.740;22.174;2023-03-23T13:42:58;2.55;;;2.35;;
50350;SDS011;36250;48.740;22.174;2023-03-23T13:51:22;4.40;;;2.60;;
50350;SDS011;36250;48.740;22.174;2023-03-23T13:59:07;6.35;;;2.70;;
50350;SDS011;36250;48.740;22.174;2023-03-23T14:01:34;3.30;;;3.00;;
50350;SDS011;36250;48.740;22.174;2023-03-23T14:04:04;3.70;;;2.53;;
50350;SDS011;36250;48.740;22.174;2023-03-23T14:06:34;6.00;;;2.85;;
50350;SDS011;36250;48.740;22.174;2023-03-23T14:09:06;5.70;;;2.90;;
50350;SDS011;36250;48.740;22.174;2023-03-23T14:11:45;4.20;;;2.03;;
50350;SDS011;36250;48.740;22.174;2023-03-23T14:14:17;2.63;;;2.15;;
50350;SDS011;36250;48.740;22.174;2023-03-23T14:17:15;3.47;;;2.67;;
50350;SDS011;36250;48.740;22.174;2023-03-23T14:19:43;2.13;;;2.00;;
50350;SDS011;36250;48.740;22.174;2023-03-23T14:22:17;3.58;;;2.65;;
50350;SDS011;36250;48.740;22.174;2023-03-23T14:24:51;2.42;;;2.20;;
50350;SDS011;36250;48.740;22.174;2023-03-23T14:27:23;2.97;;;2.35;;
50350;SDS011;36250;48.740;22.174;2023-03-23T14:30:03;6.25;;;2.22;;
50350;SDS011;36250;48.740;22.174;2023-03-23T14:32:31;4.40;;;2.33;;
50350;SDS011;36250;48.740;22.174;2023-03-23T14:34:57;3.92;;;2.00;;
50350;SDS011;36250;48.740;22.174;2023-03-23T14:37:25;5.65;;;2.50;;
50350;SDS011;36250;48.740;22.174;2023-03-23T14:39:52;5.75;;;2.10;;
50350;SDS011;36250;48.740;22.174;2023-03-23T14:42:19;3.58;;;2.13;;
50350;SDS011;36250;48.740;22.174;2023-03-23T14:47:18;2.63;;;2.45;;
50350;SDS011;36250;48.740;22.174;2023-03-23T14:50:06;7.47;;;2.35;;
50350;SDS011;36250;48.740;22.174;2023-03-23T14:52:47;4.78;;;2.25;;
50350;SDS011;36250;48.740;22.174;2023-03-23T14:55:14;3.22;;;2.17;;
50350;SDS011;36250;48.740;22.174;2023-03-23T14:57:45;5.82;;;2.40;;
50350;SDS011;36250;48.740;22.174;2023-03-23T15:00:13;2.67;;;2.10;;
50350;SDS011;36250;48.740;22.174;2023-03-23T15:05:13;3.72;;;2.72;;
50350;SDS011;36250;48.740;22.174;2023-03-23T15:07:44;2.53;;;2.30;;
50350;SDS011;36250;48.740;22.174;2023-03-23T15:10:17;11.30;;;5.65;;
50350;SDS011;36250;48.740;22.174;2023-03-23T15:12:45;5.55;;;4.47;;
50350;SDS011;36250;48.740;22.174;2023-03-23T15:15:31;7.20;;;6.30;;
50350;SDS011;36250;48.740;22.174;2023-03-23T15:18:01;7.97;;;6.10;;
50350;SDS011;36250;48.740;22.174;2023-03-23T15:20:47;8.88;;;8.05;;
50350;SDS011;36250;48.740;22.174;2023-03-23T15:23:15;6.65;;;6.05;;
50350;SDS011;36250;48.740;22.174;2023-03-23T15:26:03;7.88;;;7.30;;
50350;SDS011;36250;48.740;22.174;2023-03-23T15:28:32;6.80;;;4.95;;
50350;SDS011;36250;48.740;22.174;2023-03-23T15:31:04;7.43;;;4.70;;
50350;SDS011;36250;48.740;22.174;2023-03-23T15:33:34;5.53;;;4.80;;
50350;SDS011;36250;48.740;22.174;2023-03-23T15:36:05;7.25;;;5.80;;
50350;SDS011;36250;48.740;22.174;2023-03-23T15:38:34;23.35;;;18.48;;
50350;SDS011;36250;48.740;22.174;2023-03-23T15:41:01;35.15;;;31.65;;
50350;SDS011;36250;48.740;22.174;2023-03-23T15:43:31;55.83;;;46.15;;
50350;SDS011;36250;48.740;22.174;2023-03-23T15:48:31;40.97;;;36.47;;
50350;SDS011;36250;48.740;22.174;2023-03-23T15:50:59;19.17;;;16.27;;
50350;SDS011;36250;48.740;22.174;2023-03-23T15:53:31;11.88;;;8.55;;
50350;SDS011;36250;48.740;22.174;2023-03-23T15:55:59;11.30;;;5.32;;
50350;SDS011;36250;48.740;22.174;2023-03-23T15:58:26;13.00;;;5.15;;
50350;SDS011;36250;48.740;22.174;2023-03-23T16:00:52;43.95;;;39.25;;
50350;SDS011;36250;48.740;22.174;2023-03-23T16:03:40;57.97;;;52.05;;
50350;SDS011;36250;48.740;22.174;2023-03-23T16:06:11;34.85;;;31.17;;
50350;SDS011;36250;48.740;22.174;2023-03-23T16:08:38;23.88;;;21.40;;
50350;SDS011;36250;48.740;22.174;2023-03-23T16:11:05;29.52;;;26.40;;
50350;SDS011;36250;48.740;22.174;2023-03-23T16:13:33;21.08;;;16.48;;
50350;SDS011;36250;48.740;22.174;2023-03-23T16:15:58;8.95;;;7.20;;
50350;SDS011;36250;48.740;22.174;2023-03-23T16:18:24;6.38;;;5.78;;
50350;SDS011;36250;48.740;22.174;2023-03-23T16:20:50;7.97;;;6.32;;
50350;SDS011;36250;48.740;22.174;2023-03-23T16:23:15;8.02;;;5.80;;
50350;SDS011;36250;48.740;22.174;2023-03-23T16:25:41;11.73;;;6.97;;
50350;SDS011;36250;48.740;22.174;2023-03-23T16:28:10;12.80;;;9.68;;
50350;SDS011;36250;48.740;22.174;2023-03-23T16:30:37;23.98;;;13.48;;
50350;SDS011;36250;48.740;22.174;2023-03-23T16:33:04;10.70;;;8.80;;
50350;SDS011;36250;48.740;22.174;2023-03-23T16:35:29;10.80;;;8.95;;
50350;SDS011;36250;48.740;22.174;2023-03-23T16:37:56;37.75;;;21.98;;
50350;SDS011;36250;48.740;22.174;2023-03-23T16:40:21;47.30;;;28.35;;
50350;SDS011;36250;48.740;22.174;2023-03-23T16:42:47;49.03;;;28.85;;
50350;SDS011;36250;48.740;22.174;2023-03-23T16:45:14;40.72;;;23.00;;